Asian Infinity — 3EVP3 — position and weather

sailwx.info

Track history (hours):
 
Tides and Currents Weather Stations Pressure Air Temp Water Temp Dewpoint Dewpoint Depression Visibility Wind Speed Wind Dir Waves Ship Positions

Asian Infinity

Last reported at 2017-Sep-21 04:38 UTC. Time now 2017-Sep-24 19:43 UTC.
Position N 39°27' E 121°13'.

Length 104 m; draft 5.1 m.

Type: Cargo ship. MMSI: 351868000.

Date/timePositionNaut miles runAvg speedWind from/ knotsBaromVisibWave heightAir tempDewpointWater temp
2017-Sep-21 04:38N 39°27' E 121°13'1 5.6
2017-Sep-21 04:23N 39°27' E 121°11'10 9.1
2017-Sep-21 03:17N 39°20' E 121°02'312.5
2017-Sep-21 03:00N 39°17' E 120°59'612.1
2017-Sep-21 02:30N 39°13' E 120°54'1411.4
2017-Sep-21 01:16N 39°02' E 120°42'1611.5
2017-Sep-20 23:52N 38°54' E 120°24'512.2
2017-Sep-20 23:29N 38°53' E 120°18'10811.1
2017-Sep-20 13:45N 38°56' E 117°59'4 9.8
2017-Sep-20 13:21N 38°57' E 117°55'3 9.8
2017-Sep-20 13:01N 38°58' E 117°50'4 7.3
2017-Sep-20 12:30N 38°59' E 117°46'0 0.7
2017-Sep-20 11:57N 38°59' E 117°45'0 0.0
2017-Sep-20 11:27N 38°59' E 117°45'0 0.0
2017-Sep-20 10:57N 38°59' E 117°45'0 0.0
2017-Sep-20 10:27N 38°59' E 117°45'0 0.0
2017-Sep-20 09:57N 38°59' E 117°45'0 0.0
2017-Sep-20 09:27N 38°59' E 117°45'0 0.0
2017-Sep-20 08:57N 38°59' E 117°45'0 0.0
2017-Sep-20 08:27N 38°59' E 117°45'0 0.0
2017-Sep-20 07:57N 38°59' E 117°45'0 0.0
2017-Sep-20 07:27N 38°59' E 117°45'0 0.0
2017-Sep-20 06:57N 38°59' E 117°45'0 0.0
2017-Sep-20 06:21N 38°59' E 117°45'0 0.0
2017-Sep-20 05:57N 38°59' E 117°45'0 0.0
2017-Sep-20 05:27N 38°59' E 117°45'0 0.0
2017-Sep-20 04:57N 38°59' E 117°45'0 0.0
2017-Sep-20 04:21N 38°59' E 117°45'0 0.0
2017-Sep-20 03:51N 38°59' E 117°45'0 0.0
2017-Sep-20 03:27N 38°59' E 117°45'0 0.4
2017-Sep-20 03:00N 38°59' E 117°46'3 5.9
2017-Sep-20 02:30N 38°58' E 117°49'139 8.9
2017-Sep-19 10:55N 38°37' E 120°46'8 9.9
2017-Sep-19 10:06N 38°36' E 120°56'1 9.5
2017-Sep-19 09:58N 38°35' E 120°58'4 9.6
2017-Sep-19 09:30N 38°33' E 121°03'5 9.8
2017-Sep-19 09:00N 38°31' E 121°08'910.3
2017-Sep-19 08:06N 38°31' E 121°20'110.9
2017-Sep-19 08:00N 38°31' E 121°22'611.0
2017-Sep-19 07:30N 38°32' E 121°29'510.7
2017-Sep-19 07:00N 38°32' E 121°36'5 9.8
2017-Sep-19 06:30N 38°33' E 121°42'611.8
2017-Sep-19 06:00N 38°39' E 121°43'611.9
2017-Sep-19 05:30N 38°45' E 121°43'612.3
2017-Sep-19 05:00N 38°51' E 121°45'6 9.9
2017-Sep-19 04:21N 38°57' E 121°46'4 9.2
2017-Sep-19 03:57N 39°01' E 121°45'0 0.1
2017-Sep-19 00:33N 39°01' E 121°45'0 0.0
2017-Sep-19 00:21N 39°01' E 121°45'11 0.8
2017-Sep-18 10:58N 38°50' E 121°48'510.9
2017-Sep-18 10:30N 38°46' E 121°51'4111.9
2017-Sep-18 07:05N 38°15' E 122°24'412.1
2017-Sep-18 06:46N 38°11' E 122°27'1711.7
2017-Sep-18 05:21N 37°58' E 122°40'611.1
2017-Sep-18 04:46N 37°53' E 122°45'3210.4
2017-Sep-18 01:41N 37°25' E 123°03'386 9.4
2017-Sep-16 08:44N 31°00' E 122°26'1 5.0
2017-Sep-16 08:30N 31°00' E 122°25'3 5.4
2017-Sep-16 07:59N 31°01' E 122°22'2 5.1
2017-Sep-16 07:30N 31°01' E 122°19'3 6.2
2017-Sep-16 07:00N 31°02' E 122°15'4 8.1
2017-Sep-16 06:30N 31°03' E 122°11'510.2
2017-Sep-16 06:00N 31°04' E 122°05'5 9.7
2017-Sep-16 05:30N 31°06' E 121°60'612.7
2017-Sep-16 05:00N 31°09' E 121°53'713.7
2017-Sep-16 04:30N 31°14' E 121°48'613.0
2017-Sep-16 04:01N 31°18' E 121°43'510.6
2017-Sep-16 03:30N 31°22' E 121°38'510.9
2017-Sep-16 03:00N 31°24' E 121°32'2 4.5
2017-Sep-16 02:30N 31°22' E 121°30'1 2.9
2017-Sep-16 02:00N 31°21' E 121°31'0 0.2
2017-Sep-16 01:30N 31°21' E 121°31'0 0.0
2017-Sep-16 01:00N 31°21' E 121°31'0 0.0
2017-Sep-16 00:27N 31°21' E 121°31'0 0.0
2017-Sep-16 00:00N 31°21' E 121°31'0 0.0
2017-Sep-15 23:30N 31°21' E 121°31'0 0.0
2017-Sep-15 23:00N 31°21' E 121°31'0 0.0
2017-Sep-15 22:30N 31°21' E 121°31'0 0.0
2017-Sep-15 21:57N 31°21' E 121°31'0 0.0
2017-Sep-15 21:30N 31°21' E 121°31'0 0.0
2017-Sep-15 20:54N 31°21' E 121°31'0 0.0
2017-Sep-15 20:30N 31°21' E 121°31'0 0.0
2017-Sep-15 19:54N 31°21' E 121°31'0 0.0
2017-Sep-15 19:30N 31°21' E 121°31'0 0.0
2017-Sep-15 19:00N 31°21' E 121°31'0 0.0
2017-Sep-15 18:27N 31°21' E 121°31'0 0.0
2017-Sep-15 18:00N 31°21' E 121°31'0 0.0
2017-Sep-15 17:30N 31°21' E 121°31'0 0.0
2017-Sep-15 17:00N 31°21' E 121°31'0 0.0
2017-Sep-15 16:30N 31°21' E 121°31'0 0.0
2017-Sep-15 16:00N 31°21' E 121°31'0 0.0
2017-Sep-15 15:30N 31°21' E 121°31'0 0.0
2017-Sep-15 15:00N 31°21' E 121°31'0 0.0
2017-Sep-15 14:24N 31°21' E 121°31'0 0.0
2017-Sep-15 13:57N 31°21' E 121°31'0 0.0
2017-Sep-15 13:30N 31°21' E 121°31'0 0.0
2017-Sep-15 12:57N 31°21' E 121°31'0 0.0
2017-Sep-15 12:30N 31°21' E 121°31'0 0.0
2017-Sep-15 12:00N 31°21' E 121°31'0 0.0
2017-Sep-15 11:30N 31°21' E 121°31'0 0.0
2017-Sep-15 11:00N 31°21' E 121°31'0 0.0
2017-Sep-15 10:30N 31°21' E 121°31'0 0.0
2017-Sep-15 10:00N 31°21' E 121°31'0 0.0
2017-Sep-15 09:18N 31°21' E 121°31'0 0.0
2017-Sep-15 09:00N 31°21' E 121°31'0 0.0
2017-Sep-15 08:30N 31°21' E 121°31'0 0.0
2017-Sep-15 08:00N 31°21' E 121°31'0 0.0
2017-Sep-15 07:30N 31°21' E 121°31'0 0.0
2017-Sep-15 06:57N 31°21' E 121°31'0 0.0
2017-Sep-15 06:27N 31°21' E 121°31'0 0.0
2017-Sep-15 06:00N 31°21' E 121°31'0 0.0
2017-Sep-15 05:30N 31°21' E 121°31'0 0.0
2017-Sep-15 05:00N 31°21' E 121°31'0 0.0
2017-Sep-15 04:30N 31°21' E 121°31'0 0.0
2017-Sep-15 04:00N 31°21' E 121°31'0 0.0
2017-Sep-15 03:30N 31°21' E 121°31'0 0.0
2017-Sep-15 03:00N 31°21' E 121°31'0 0.0
2017-Sep-15 02:30N 31°21' E 121°31'0 0.0
2017-Sep-15 02:00N 31°21' E 121°31'0 0.0
2017-Sep-15 01:30N 31°21' E 121°31'0 0.0
2017-Sep-15 01:00N 31°21' E 121°31'0 0.0
2017-Sep-15 00:30N 31°21' E 121°31'0 0.0
2017-Sep-15 00:00N 31°21' E 121°31'0 0.0
2017-Sep-14 23:30N 31°21' E 121°31'0 0.0
2017-Sep-14 23:00N 31°21' E 121°31'0 0.0
2017-Sep-14 22:30N 31°21' E 121°31'0 0.0
2017-Sep-14 22:00N 31°21' E 121°31'0 0.0
2017-Sep-14 21:30N 31°21' E 121°31'0 0.0
2017-Sep-14 21:00N 31°21' E 121°31'0 0.0
2017-Sep-14 20:30N 31°21' E 121°31'0 0.0
2017-Sep-14 20:00N 31°21' E 121°31'0 0.0
2017-Sep-14 19:30N 31°21' E 121°31'0 0.0
2017-Sep-14 19:00N 31°21' E 121°31'0 0.0
2017-Sep-14 18:30N 31°21' E 121°31'0 0.0
2017-Sep-14 18:00N 31°21' E 121°31'0 0.0
2017-Sep-14 17:30N 31°21' E 121°31'0 0.0
2017-Sep-14 17:00N 31°21' E 121°31'0 0.0
2017-Sep-14 16:30N 31°21' E 121°31'0 0.0
2017-Sep-14 16:00N 31°21' E 121°31'0 0.0
2017-Sep-14 15:30N 31°21' E 121°31'0 0.0
2017-Sep-14 14:57N 31°21' E 121°31'0 0.0
2017-Sep-14 14:30N 31°21' E 121°31'0 0.0
2017-Sep-14 14:00N 31°21' E 121°31'0 0.0
2017-Sep-14 13:30N 31°21' E 121°31'0 0.0
2017-Sep-14 13:00N 31°21' E 121°31'0 0.0
2017-Sep-14 12:30N 31°21' E 121°31'0 0.0
2017-Sep-14 12:00N 31°21' E 121°31'0 0.0
2017-Sep-14 11:30N 31°21' E 121°31'0 0.0
2017-Sep-14 11:00N 31°21' E 121°31'0 0.0
2017-Sep-14 10:30N 31°21' E 121°31'0 0.0
2017-Sep-14 10:00N 31°21' E 121°31'0 0.0
2017-Sep-14 09:30N 31°21' E 121°31'0 0.0
2017-Sep-14 09:00N 31°21' E 121°31'0 0.0
2017-Sep-14 08:30N 31°21' E 121°31'0 0.0
2017-Sep-14 08:00N 31°21' E 121°31'0 0.0
2017-Sep-14 07:30N 31°21' E 121°31'0 0.0
2017-Sep-14 07:00N 31°21' E 121°31'0 0.0
2017-Sep-14 06:27N 31°21' E 121°31'0 0.0
2017-Sep-14 06:00N 31°21' E 121°31'0 0.0
2017-Sep-14 05:27N 31°21' E 121°31'0 0.0
2017-Sep-14 05:00N 31°21' E 121°31'0 0.0
2017-Sep-14 04:30N 31°21' E 121°31'0 0.0
2017-Sep-14 04:00N 31°21' E 121°31'0 0.0
2017-Sep-14 03:30N 31°21' E 121°31'0 0.0
2017-Sep-14 02:57N 31°21' E 121°31'0 0.0
2017-Sep-14 02:30N 31°21' E 121°31'0 0.0
2017-Sep-14 02:00N 31°21' E 121°31'0 0.0
2017-Sep-14 01:30N 31°21' E 121°31'0 0.0
2017-Sep-14 01:00N 31°21' E 121°31'0 0.0
2017-Sep-14 00:30N 31°21' E 121°31'0 0.0
2017-Sep-14 00:00N 31°21' E 121°31'0 0.0
2017-Sep-13 23:30N 31°21' E 121°31'0 0.0
2017-Sep-13 23:00N 31°21' E 121°31'0 0.0
2017-Sep-13 22:30N 31°21' E 121°31'0 0.0
2017-Sep-13 22:00N 31°21' E 121°31'0 0.0
2017-Sep-13 21:30N 31°21' E 121°31'0 0.0
2017-Sep-13 21:00N 31°21' E 121°31'0 0.0
2017-Sep-13 20:27N 31°21' E 121°31'0 0.0
2017-Sep-13 19:57N 31°21' E 121°31'0 0.0
2017-Sep-13 19:30N 31°21' E 121°31'0 0.0
2017-Sep-13 19:00N 31°21' E 121°31'0 0.0
2017-Sep-13 18:30N 31°21' E 121°31'0 0.0
2017-Sep-13 18:00N 31°21' E 121°31'0 0.0
2017-Sep-13 17:30N 31°21' E 121°31'0 0.0
2017-Sep-13 17:00N 31°21' E 121°31'0 0.0
2017-Sep-13 16:30N 31°21' E 121°31'0 0.0
2017-Sep-13 15:59N 31°21' E 121°31'0 0.0
2017-Sep-13 15:29N 31°21' E 121°31'0 0.0
2017-Sep-13 14:59N 31°21' E 121°31'0 0.0
2017-Sep-13 14:29N 31°21' E 121°31'0 0.0
2017-Sep-13 13:59N 31°21' E 121°31'0 0.0
2017-Sep-13 13:29N 31°21' E 121°31'0 0.0
2017-Sep-13 12:59N 31°21' E 121°31'0 0.0
2017-Sep-13 12:29N 31°21' E 121°31'0 0.0
2017-Sep-13 11:59N 31°21' E 121°31'0 0.0
2017-Sep-13 11:26N 31°21' E 121°31'0 0.0
2017-Sep-13 10:59N 31°21' E 121°31'0 0.0
2017-Sep-13 10:29N 31°21' E 121°31'0 0.0
2017-Sep-13 09:59N 31°21' E 121°31'0 0.0
2017-Sep-13 09:29N 31°21' E 121°31'0 0.0
2017-Sep-13 08:59N 31°21' E 121°31'0 0.0
2017-Sep-13 08:29N 31°21' E 121°31'0 0.0
2017-Sep-13 07:59N 31°21' E 121°31'0 0.0
2017-Sep-13 07:23N 31°21' E 121°31'0 0.0
2017-Sep-13 07:00N 31°21' E 121°31'0 0.0
2017-Sep-13 06:26N 31°21' E 121°31'0 0.0
2017-Sep-13 05:59N 31°21' E 121°31'0 0.0
2017-Sep-13 05:29N 31°21' E 121°31'0 0.0
2017-Sep-13 04:56N 31°21' E 121°31'0 0.0
2017-Sep-13 04:29N 31°21' E 121°31'0 0.0
2017-Sep-13 03:53N 31°21' E 121°31'0 0.0
2017-Sep-13 03:29N 31°21' E 121°31'0 0.0
2017-Sep-13 02:54N 31°21' E 121°31'0 0.0
2017-Sep-13 02:28N 31°21' E 121°31'0 0.0
2017-Sep-13 01:55N 31°21' E 121°31'0 0.0
2017-Sep-13 01:28N 31°21' E 121°31'0 0.0
2017-Sep-13 00:58N 31°21' E 121°31'0 0.0
2017-Sep-13 00:28N 31°21' E 121°31'0 0.0
2017-Sep-12 23:58N 31°21' E 121°31'0 0.0
2017-Sep-12 23:28N 31°21' E 121°31'0 0.0
2017-Sep-12 23:00N 31°21' E 121°31'2 3.2
2017-Sep-12 22:30N 31°22' E 121°30'2 4.3
2017-Sep-12 22:00N 31°24' E 121°32'3 6.2
2017-Sep-12 21:30N 31°23' E 121°35'5 9.5
2017-Sep-12 21:00N 31°21' E 121°40'4 8.8
2017-Sep-12 20:30N 31°18' E 121°44'611.7
2017-Sep-12 20:00N 31°13' E 121°48'  
Track history (hours):
 
Tides and Currents Weather Stations Pressure Air Temp Water Temp Dewpoint Dewpoint Depression Visibility Wind Speed Wind Dir Waves Ship Positions

Asian Infinity

Last reported at 2017-Sep-21 04:38 UTC. Time now 2017-Sep-24 19:43 UTC.
Position N 39°27' E 121°13'.

Length 104 m; draft 5.1 m.

Type: Cargo ship. MMSI: 351868000.

Date/timePositionNaut miles runAvg speedWind from/ knotsBaromVisibWave heightAir tempDewpointWater temp
2017-Sep-21 04:38N 39°27' E 121°13'1 5.6
2017-Sep-21 04:23N 39°27' E 121°11'10 9.1
2017-Sep-21 03:17N 39°20' E 121°02'312.5
2017-Sep-21 03:00N 39°17' E 120°59'612.1
2017-Sep-21 02:30N 39°13' E 120°54'1411.4
2017-Sep-21 01:16N 39°02' E 120°42'1611.5
2017-Sep-20 23:52N 38°54' E 120°24'512.2
2017-Sep-20 23:29N 38°53' E 120°18'10811.1
2017-Sep-20 13:45N 38°56' E 117°59'4 9.8
2017-Sep-20 13:21N 38°57' E 117°55'3 9.8
2017-Sep-20 13:01N 38°58' E 117°50'4 7.3
2017-Sep-20 12:30N 38°59' E 117°46'0 0.7
2017-Sep-20 11:57N 38°59' E 117°45'0 0.0
2017-Sep-20 11:27N 38°59' E 117°45'0 0.0
2017-Sep-20 10:57N 38°59' E 117°45'0 0.0
2017-Sep-20 10:27N 38°59' E 117°45'0 0.0
2017-Sep-20 09:57N 38°59' E 117°45'0 0.0
2017-Sep-20 09:27N 38°59' E 117°45'0 0.0
2017-Sep-20 08:57N 38°59' E 117°45'0 0.0
2017-Sep-20 08:27N 38°59' E 117°45'0 0.0
2017-Sep-20 07:57N 38°59' E 117°45'0 0.0
2017-Sep-20 07:27N 38°59' E 117°45'0 0.0
2017-Sep-20 06:57N 38°59' E 117°45'0 0.0
2017-Sep-20 06:21N 38°59' E 117°45'0 0.0
2017-Sep-20 05:57N 38°59' E 117°45'0 0.0
2017-Sep-20 05:27N 38°59' E 117°45'0 0.0
2017-Sep-20 04:57N 38°59' E 117°45'0 0.0
2017-Sep-20 04:21N 38°59' E 117°45'0 0.0
2017-Sep-20 03:51N 38°59' E 117°45'0 0.0
2017-Sep-20 03:27N 38°59' E 117°45'0 0.4
2017-Sep-20 03:00N 38°59' E 117°46'3 5.9
2017-Sep-20 02:30N 38°58' E 117°49'139 8.9
2017-Sep-19 10:55N 38°37' E 120°46'8 9.9
2017-Sep-19 10:06N 38°36' E 120°56'1 9.5
2017-Sep-19 09:58N 38°35' E 120°58'4 9.6
2017-Sep-19 09:30N 38°33' E 121°03'5 9.8
2017-Sep-19 09:00N 38°31' E 121°08'910.3
2017-Sep-19 08:06N 38°31' E 121°20'110.9
2017-Sep-19 08:00N 38°31' E 121°22'611.0
2017-Sep-19 07:30N 38°32' E 121°29'510.7
2017-Sep-19 07:00N 38°32' E 121°36'5 9.8
2017-Sep-19 06:30N 38°33' E 121°42'611.8
2017-Sep-19 06:00N 38°39' E 121°43'611.9
2017-Sep-19 05:30N 38°45' E 121°43'612.3
2017-Sep-19 05:00N 38°51' E 121°45'6 9.9
2017-Sep-19 04:21N 38°57' E 121°46'4 9.2
2017-Sep-19 03:57N 39°01' E 121°45'0 0.1
2017-Sep-19 00:33N 39°01' E 121°45'0 0.0
2017-Sep-19 00:21N 39°01' E 121°45'11 0.8
2017-Sep-18 10:58N 38°50' E 121°48'510.9
2017-Sep-18 10:30N 38°46' E 121°51'4111.9
2017-Sep-18 07:05N 38°15' E 122°24'412.1
2017-Sep-18 06:46N 38°11' E 122°27'1711.7
2017-Sep-18 05:21N 37°58' E 122°40'611.1
2017-Sep-18 04:46N 37°53' E 122°45'3210.4
2017-Sep-18 01:41N 37°25' E 123°03'386 9.4
2017-Sep-16 08:44N 31°00' E 122°26'1 5.0
2017-Sep-16 08:30N 31°00' E 122°25'3 5.4
2017-Sep-16 07:59N 31°01' E 122°22'2 5.1
2017-Sep-16 07:30N 31°01' E 122°19'3 6.2
2017-Sep-16 07:00N 31°02' E 122°15'4 8.1
2017-Sep-16 06:30N 31°03' E 122°11'510.2
2017-Sep-16 06:00N 31°04' E 122°05'5 9.7
2017-Sep-16 05:30N 31°06' E 121°60'612.7
2017-Sep-16 05:00N 31°09' E 121°53'713.7
2017-Sep-16 04:30N 31°14' E 121°48'613.0
2017-Sep-16 04:01N 31°18' E 121°43'510.6
2017-Sep-16 03:30N 31°22' E 121°38'510.9
2017-Sep-16 03:00N 31°24' E 121°32'2 4.5
2017-Sep-16 02:30N 31°22' E 121°30'1 2.9
2017-Sep-16 02:00N 31°21' E 121°31'0 0.2
2017-Sep-16 01:30N 31°21' E 121°31'0 0.0
2017-Sep-16 01:00N 31°21' E 121°31'0 0.0
2017-Sep-16 00:27N 31°21' E 121°31'0 0.0
2017-Sep-16 00:00N 31°21' E 121°31'0 0.0
2017-Sep-15 23:30N 31°21' E 121°31'0 0.0
2017-Sep-15 23:00N 31°21' E 121°31'0 0.0
2017-Sep-15 22:30N 31°21' E 121°31'0 0.0
2017-Sep-15 21:57N 31°21' E 121°31'0 0.0
2017-Sep-15 21:30N 31°21' E 121°31'0 0.0
2017-Sep-15 20:54N 31°21' E 121°31'0 0.0
2017-Sep-15 20:30N 31°21' E 121°31'0 0.0
2017-Sep-15 19:54N 31°21' E 121°31'0 0.0
2017-Sep-15 19:30N 31°21' E 121°31'0 0.0
2017-Sep-15 19:00N 31°21' E 121°31'0 0.0
2017-Sep-15 18:27N 31°21' E 121°31'0 0.0
2017-Sep-15 18:00N 31°21' E 121°31'0 0.0
2017-Sep-15 17:30N 31°21' E 121°31'0 0.0
2017-Sep-15 17:00N 31°21' E 121°31'0 0.0
2017-Sep-15 16:30N 31°21' E 121°31'0 0.0
2017-Sep-15 16:00N 31°21' E 121°31'0 0.0
2017-Sep-15 15:30N 31°21' E 121°31'0 0.0
2017-Sep-15 15:00N 31°21' E 121°31'0 0.0
2017-Sep-15 14:24N 31°21' E 121°31'0 0.0
2017-Sep-15 13:57N 31°21' E 121°31'0 0.0
2017-Sep-15 13:30N 31°21' E 121°31'0 0.0
2017-Sep-15 12:57N 31°21' E 121°31'0 0.0
2017-Sep-15 12:30N 31°21' E 121°31'0 0.0
2017-Sep-15 12:00N 31°21' E 121°31'0 0.0
2017-Sep-15 11:30N 31°21' E 121°31'0 0.0
2017-Sep-15 11:00N 31°21' E 121°31'0 0.0
2017-Sep-15 10:30N 31°21' E 121°31'0 0.0
2017-Sep-15 10:00N 31°21' E 121°31'0 0.0
2017-Sep-15 09:18N 31°21' E 121°31'0 0.0
2017-Sep-15 09:00N 31°21' E 121°31'0 0.0
2017-Sep-15 08:30N 31°21' E 121°31'0 0.0
2017-Sep-15 08:00N 31°21' E 121°31'0 0.0
2017-Sep-15 07:30N 31°21' E 121°31'0 0.0
2017-Sep-15 06:57N 31°21' E 121°31'0 0.0
2017-Sep-15 06:27N 31°21' E 121°31'0 0.0
2017-Sep-15 06:00N 31°21' E 121°31'0 0.0
2017-Sep-15 05:30N 31°21' E 121°31'0 0.0
2017-Sep-15 05:00N 31°21' E 121°31'0 0.0
2017-Sep-15 04:30N 31°21' E 121°31'0 0.0
2017-Sep-15 04:00N 31°21' E 121°31'0 0.0
2017-Sep-15 03:30N 31°21' E 121°31'0 0.0
2017-Sep-15 03:00N 31°21' E 121°31'0 0.0
2017-Sep-15 02:30N 31°21' E 121°31'0 0.0
2017-Sep-15 02:00N 31°21' E 121°31'0 0.0
2017-Sep-15 01:30N 31°21' E 121°31'0 0.0
2017-Sep-15 01:00N 31°21' E 121°31'0 0.0
2017-Sep-15 00:30N 31°21' E 121°31'0 0.0
2017-Sep-15 00:00N 31°21' E 121°31'0 0.0
2017-Sep-14 23:30N 31°21' E 121°31'0 0.0
2017-Sep-14 23:00N 31°21' E 121°31'0 0.0
2017-Sep-14 22:30N 31°21' E 121°31'0 0.0
2017-Sep-14 22:00N 31°21' E 121°31'0 0.0
2017-Sep-14 21:30N 31°21' E 121°31'0 0.0
2017-Sep-14 21:00N 31°21' E 121°31'0 0.0
2017-Sep-14 20:30N 31°21' E 121°31'0 0.0
2017-Sep-14 20:00N 31°21' E 121°31'0 0.0
2017-Sep-14 19:30N 31°21' E 121°31'0 0.0
2017-Sep-14 19:00N 31°21' E 121°31'0 0.0
2017-Sep-14 18:30N 31°21' E 121°31'0 0.0
2017-Sep-14 18:00N 31°21' E 121°31'0 0.0
2017-Sep-14 17:30N 31°21' E 121°31'0 0.0
2017-Sep-14 17:00N 31°21' E 121°31'0 0.0
2017-Sep-14 16:30N 31°21' E 121°31'0 0.0
2017-Sep-14 16:00N 31°21' E 121°31'0 0.0
2017-Sep-14 15:30N 31°21' E 121°31'0 0.0
2017-Sep-14 14:57N 31°21' E 121°31'0 0.0
2017-Sep-14 14:30N 31°21' E 121°31'0 0.0
2017-Sep-14 14:00N 31°21' E 121°31'0 0.0
2017-Sep-14 13:30N 31°21' E 121°31'0 0.0
2017-Sep-14 13:00N 31°21' E 121°31'0 0.0
2017-Sep-14 12:30N 31°21' E 121°31'0 0.0
2017-Sep-14 12:00N 31°21' E 121°31'0 0.0
2017-Sep-14 11:30N 31°21' E 121°31'0 0.0
2017-Sep-14 11:00N 31°21' E 121°31'0 0.0
2017-Sep-14 10:30N 31°21' E 121°31'0 0.0
2017-Sep-14 10:00N 31°21' E 121°31'0 0.0
2017-Sep-14 09:30N 31°21' E 121°31'0 0.0
2017-Sep-14 09:00N 31°21' E 121°31'0 0.0
2017-Sep-14 08:30N 31°21' E 121°31'0 0.0
2017-Sep-14 08:00N 31°21' E 121°31'0 0.0
2017-Sep-14 07:30N 31°21' E 121°31'0 0.0
2017-Sep-14 07:00N 31°21' E 121°31'0 0.0
2017-Sep-14 06:27N 31°21' E 121°31'0 0.0
2017-Sep-14 06:00N 31°21' E 121°31'0 0.0
2017-Sep-14 05:27N 31°21' E 121°31'0 0.0
2017-Sep-14 05:00N 31°21' E 121°31'0 0.0
2017-Sep-14 04:30N 31°21' E 121°31'0 0.0
2017-Sep-14 04:00N 31°21' E 121°31'0 0.0
2017-Sep-14 03:30N 31°21' E 121°31'0 0.0
2017-Sep-14 02:57N 31°21' E 121°31'0 0.0
2017-Sep-14 02:30N 31°21' E 121°31'0 0.0
2017-Sep-14 02:00N 31°21' E 121°31'0 0.0
2017-Sep-14 01:30N 31°21' E 121°31'0 0.0
2017-Sep-14 01:00N 31°21' E 121°31'0 0.0
2017-Sep-14 00:30N 31°21' E 121°31'0 0.0
2017-Sep-14 00:00N 31°21' E 121°31'0 0.0
2017-Sep-13 23:30N 31°21' E 121°31'0 0.0
2017-Sep-13 23:00N 31°21' E 121°31'0 0.0
2017-Sep-13 22:30N 31°21' E 121°31'0 0.0
2017-Sep-13 22:00N 31°21' E 121°31'0 0.0
2017-Sep-13 21:30N 31°21' E 121°31'0 0.0
2017-Sep-13 21:00N 31°21' E 121°31'0 0.0
2017-Sep-13 20:27N 31°21' E 121°31'0 0.0
2017-Sep-13 19:57N 31°21' E 121°31'0 0.0
2017-Sep-13 19:30N 31°21' E 121°31'0 0.0
2017-Sep-13 19:00N 31°21' E 121°31'0 0.0
2017-Sep-13 18:30N 31°21' E 121°31'0 0.0
2017-Sep-13 18:00N 31°21' E 121°31'0 0.0
2017-Sep-13 17:30N 31°21' E 121°31'0 0.0
2017-Sep-13 17:00N 31°21' E 121°31'0 0.0
2017-Sep-13 16:30N 31°21' E 121°31'0 0.0
2017-Sep-13 15:59N 31°21' E 121°31'0 0.0
2017-Sep-13 15:29N 31°21' E 121°31'0 0.0
2017-Sep-13 14:59N 31°21' E 121°31'0 0.0
2017-Sep-13 14:29N 31°21' E 121°31'0 0.0
2017-Sep-13 13:59N 31°21' E 121°31'0 0.0
2017-Sep-13 13:29N 31°21' E 121°31'0 0.0
2017-Sep-13 12:59N 31°21' E 121°31'0 0.0
2017-Sep-13 12:29N 31°21' E 121°31'0 0.0
2017-Sep-13 11:59N 31°21' E 121°31'0 0.0
2017-Sep-13 11:26N 31°21' E 121°31'0 0.0
2017-Sep-13 10:59N 31°21' E 121°31'0 0.0
2017-Sep-13 10:29N 31°21' E 121°31'0 0.0
2017-Sep-13 09:59N 31°21' E 121°31'0 0.0
2017-Sep-13 09:29N 31°21' E 121°31'0 0.0
2017-Sep-13 08:59N 31°21' E 121°31'0 0.0
2017-Sep-13 08:29N 31°21' E 121°31'0 0.0
2017-Sep-13 07:59N 31°21' E 121°31'0 0.0
2017-Sep-13 07:23N 31°21' E 121°31'0 0.0
2017-Sep-13 07:00N 31°21' E 121°31'0 0.0
2017-Sep-13 06:26N 31°21' E 121°31'0 0.0
2017-Sep-13 05:59N 31°21' E 121°31'0 0.0
2017-Sep-13 05:29N 31°21' E 121°31'0 0.0
2017-Sep-13 04:56N 31°21' E 121°31'0 0.0
2017-Sep-13 04:29N 31°21' E 121°31'0 0.0
2017-Sep-13 03:53N 31°21' E 121°31'0 0.0
2017-Sep-13 03:29N 31°21' E 121°31'0 0.0
2017-Sep-13 02:54N 31°21' E 121°31'0 0.0
2017-Sep-13 02:28N 31°21' E 121°31'0 0.0
2017-Sep-13 01:55N 31°21' E 121°31'0 0.0
2017-Sep-13 01:28N 31°21' E 121°31'0 0.0
2017-Sep-13 00:58N 31°21' E 121°31'0 0.0
2017-Sep-13 00:28N 31°21' E 121°31'0 0.0
2017-Sep-12 23:58N 31°21' E 121°31'0 0.0
2017-Sep-12 23:28N 31°21' E 121°31'0 0.0
2017-Sep-12 23:00N 31°21' E 121°31'2 3.2
2017-Sep-12 22:30N 31°22' E 121°30'2 4.3
2017-Sep-12 22:00N 31°24' E 121°32'3 6.2
2017-Sep-12 21:30N 31°23' E 121°35'5 9.5
2017-Sep-12 21:00N 31°21' E 121°40'4 8.8
2017-Sep-12 20:30N 31°18' E 121°44'611.7
2017-Sep-12 20:00N 31°13' E 121°48'  

Dump ship's entire track history